Aeroporto :
LOGIN :

Iscrizione | Disclaimer

   EN    FR    IT 

 










Sommario :    VFR   VFR Marginale   IFR   IFR Intensivo   IFR Molto Intensivo
Visibilità : 
Base nubi : 
>= 8 km
>= 3000ft
5 / 8 km
1000 / 3000 ft
1500m / 5 km
500 / 1000 ft
800 / 1500m
200 / 500 ft
< 800m
< 200 ft
Simboli :   Temporali  Nebbia  Neve Forte  Precipitazioni Forti  Vento > 20 kt
SIGMETs :   Varie  Temporali  Ghiacco  Turbolenza  Onda orograficha  Ceneri Vulcaniche






- Altitudine del aeroporto : 1071 ft
- Codice IATA : LWO


UKLL - L'viv

ULTIMO METAR :
  • 020300Z VRB01MPS CAVOK 07/04 Q1011 R31/CLRD// NOSIG

METARs OBSOLETI :
  • 020230Z 30002MPS CAVOK 07/04 Q1011 R31/CLRD// NOSIG
  • 020200Z 29001MPS CAVOK 06/05 Q1012 R31/D NOSIG
  • 020130Z VRB01MPS CAVOK 06/04 Q1012 R31/D NOSIG
  • 020100Z 29001MPS CAVOK 06/04 Q1012 R31/CLRD// NOSIG
  • 020030Z 30001MPS CAVOK 05/04 Q1012 R31/CLRD// NOSIG

TAF TAF UKLL
Valido dal 02 a 00 ore il 03 a 00 ore UTC


012305Z 0200/0224 VRB01MPS 9999 BKN025 TX11/0212Z TN02/0203Z
FM020700 30006G11MPS 4000 BR SCT004 BKN007 BKN020CB
TEMPO 0207/0224 33008G14MPS 2100 -SHRA BKN005 BKN015CB



MetMap, La meteo Aeronautica in un colpo d'occhio ! - Copyright ORBIFLY Dicembre 2007 - Disclaimer

ORBIFLY MET'MAP TEAM :

Programmazione e sviluppo : Alexandra Zaïnal
Concezione : Baudouin d'Aumeries
Aiuto per la programmazione : Marc-Olivier Méhu
Supporto tecnico e logistico : Manuel Goepfert
Aiuto per la traduzione : Arnaldo La Scala

Contatto : metmap@orbifly.com




FONTI E CREDITI :

   NOAA